createdAt,value
2022-07-30T00:01:21.421Z,5.93
2022-07-30T00:03:48.645Z,6.53
2022-07-30T00:06:18.380Z,5.83
2022-07-30T00:08:45.300Z,6.97
2022-07-30T00:11:12.601Z,6.53
2022-07-30T00:13:39.628Z,6.17
2022-07-30T00:16:07.641Z,7.30
2022-07-30T00:18:34.723Z,6.20
2022-07-30T00:21:03.911Z,6.30
2022-07-30T00:23:32.464Z,7.43
2022-07-30T00:26:00.106Z,6.40
2022-07-30T00:28:27.127Z,6.43
2022-07-30T00:30:56.201Z,6.43
2022-07-30T00:33:23.464Z,6.70
2022-07-30T00:35:50.605Z,8.17
2022-07-30T00:38:17.460Z,7.30
2022-07-30T00:40:46.573Z,7.50
2022-07-30T00:43:17.439Z,7.77
2022-07-30T00:45:47.335Z,7.37
2022-07-30T00:48:14.845Z,7.10
2022-07-30T00:50:42.766Z,7.37
2022-07-30T00:53:12.592Z,7.20
2022-07-30T00:55:39.685Z,7.30
2022-07-30T00:58:06.598Z,6.70
2022-07-30T01:00:33.609Z,7.50
2022-07-30T01:03:00.562Z,8.23
2022-07-30T01:05:27.611Z,8.33
2022-07-30T01:07:55.750Z,8.70
2022-07-30T01:10:22.774Z,10.00
2022-07-30T01:12:52.842Z,7.90
2022-07-30T01:15:20.664Z,8.70
2022-07-30T01:17:52.911Z,7.67
2022-07-30T01:20:34.935Z,8.70
2022-07-30T01:23:27.930Z,8.40
2022-07-30T01:26:16.511Z,8.93
2022-07-30T01:28:47.979Z,8.67
2022-07-30T01:31:16.685Z,8.60
2022-07-30T01:33:45.969Z,8.97
2022-07-30T01:36:16.976Z,7.77
2022-07-30T01:38:46.225Z,8.40
2022-07-30T01:41:15.320Z,8.43
2022-07-30T01:43:43.714Z,8.13
2022-07-30T01:46:12.215Z,8.80
2022-07-30T01:48:41.310Z,8.10
2022-07-30T01:51:10.081Z,7.60
2022-07-30T01:53:39.497Z,7.87
2022-07-30T01:56:10.791Z,8.10
2022-07-30T01:58:39.484Z,8.40
2022-07-30T02:01:07.534Z,8.50
2022-07-30T02:03:35.538Z,9.10
2022-07-30T02:06:09.707Z,8.70
2022-07-30T02:08:52.543Z,8.63
2022-07-30T02:11:39.499Z,9.50
2022-07-30T02:14:14.488Z,8.20
2022-07-30T02:16:44.658Z,9.40
2022-07-30T02:19:17.108Z,9.07
2022-07-30T02:22:00.680Z,8.67
2022-07-30T02:24:31.533Z,8.00
2022-07-30T02:27:07.842Z,9.10
2022-07-30T02:29:37.130Z,9.07
2022-07-30T02:32:09.604Z,9.27
2022-07-30T02:34:40.415Z,9.87
2022-07-30T02:37:09.705Z,10.47
2022-07-30T02:39:37.976Z,9.73
2022-07-30T02:42:07.070Z,9.47
2022-07-30T02:44:35.656Z,10.60
2022-07-30T02:47:05.065Z,10.17
2022-07-30T02:49:35.786Z,9.87
2022-07-30T02:52:04.614Z,10.13
2022-07-30T02:54:33.262Z,11.30
2022-07-30T02:57:02.117Z,10.70
2022-07-30T02:59:31.369Z,11.37
2022-07-30T03:01:59.181Z,11.17
2022-07-30T03:04:27.091Z,10.53
2022-07-30T03:06:55.746Z,11.20
2022-07-30T03:09:23.220Z,11.70
2022-07-30T03:11:52.577Z,12.07
2022-07-30T03:14:20.018Z,11.50
2022-07-30T03:16:54.226Z,12.47
2022-07-30T03:19:23.937Z,11.80
2022-07-30T03:21:53.288Z,12.77
2022-07-30T03:24:24.517Z,12.83
2022-07-30T03:26:54.210Z,13.97
2022-07-30T03:29:24.237Z,13.60
2022-07-30T03:31:52.285Z,15.17
2022-07-30T03:34:22.830Z,13.40
2022-07-30T03:36:51.996Z,13.80
2022-07-30T03:39:19.906Z,12.40
2022-07-30T03:41:48.035Z,12.23
2022-07-30T03:44:15.780Z,14.60
2022-07-30T03:46:43.202Z,14.17
2022-07-30T03:49:10.930Z,14.37
2022-07-30T03:51:38.969Z,16.90
2022-07-30T03:54:13.307Z,14.60
2022-07-30T03:56:41.207Z,15.40
2022-07-30T03:59:08.552Z,16.50
2022-07-30T04:01:35.836Z,14.60
2022-07-30T04:04:10.030Z,16.37
2022-07-30T04:06:43.771Z,16.43
2022-07-30T04:09:13.245Z,15.70
2022-07-30T04:11:41.960Z,15.60
2022-07-30T04:14:09.445Z,15.47
2022-07-30T04:17:03.904Z,16.90
2022-07-30T04:19:42.146Z,16.63
2022-07-30T04:22:12.230Z,17.30
2022-07-30T04:24:41.307Z,16.77
2022-07-30T04:27:09.022Z,16.77
2022-07-30T04:29:36.134Z,17.90
2022-07-30T04:32:03.636Z,16.90
2022-07-30T04:34:30.779Z,17.30
2022-07-30T04:36:58.012Z,18.60
2022-07-30T04:39:25.319Z,18.33
2022-07-30T04:41:52.339Z,18.63
2022-07-30T04:44:20.035Z,18.33
2022-07-30T04:46:48.082Z,19.20
2022-07-30T04:49:17.586Z,16.80
2022-07-30T04:51:45.812Z,14.70
2022-07-30T04:54:16.067Z,15.00
2022-07-30T04:56:53.345Z,13.10
2022-07-30T04:59:24.873Z,12.17
2022-07-30T05:01:53.776Z,11.27
2022-07-30T05:04:22.768Z,12.07
2022-07-30T05:06:50.396Z,13.50
2022-07-30T05:09:18.007Z,10.80
2022-07-30T05:11:51.662Z,11.97
2022-07-30T05:14:18.643Z,11.60
2022-07-30T05:16:45.827Z,11.93
2022-07-30T05:19:13.245Z,10.63
2022-07-30T05:21:40.186Z,12.30
2022-07-30T05:24:07.645Z,11.50
2022-07-30T05:26:34.798Z,11.80
2022-07-30T05:29:04.054Z,10.67
2022-07-30T05:31:34.548Z,11.03
2022-07-30T05:34:03.492Z,9.80
2022-07-30T05:36:30.997Z,11.23
2022-07-30T05:38:58.105Z,10.30
2022-07-30T05:41:32.019Z,10.20
2022-07-30T05:44:00.751Z,9.80
2022-07-30T05:46:27.922Z,10.20
2022-07-30T05:48:54.939Z,9.77
2022-07-30T05:51:22.396Z,9.20
2022-07-30T05:53:49.970Z,9.70
2022-07-30T05:56:16.892Z,9.53
2022-07-30T05:58:43.850Z,10.93
2022-07-30T06:01:10.841Z,8.50
2022-07-30T06:03:39.154Z,8.67
2022-07-30T06:06:07.752Z,8.80
2022-07-30T06:08:35.121Z,8.90
2022-07-30T06:11:02.099Z,8.17
2022-07-30T06:13:29.027Z,8.43
2022-07-30T06:15:55.995Z,8.07
2022-07-30T06:18:23.292Z,8.60
2022-07-30T06:20:54.529Z,7.63
2022-07-30T06:23:22.176Z,8.03
2022-07-30T06:25:49.887Z,8.03
2022-07-30T06:28:37.009Z,7.00
2022-07-30T06:31:05.929Z,6.63
2022-07-30T06:33:33.128Z,7.23
2022-07-30T06:36:00.140Z,7.20
2022-07-30T06:38:27.162Z,7.97
2022-07-30T06:41:02.634Z,7.70
2022-07-30T06:43:31.795Z,7.20
2022-07-30T06:45:58.868Z,7.37
2022-07-30T06:48:25.762Z,7.37
2022-07-30T06:50:52.845Z,7.43
2022-07-30T06:53:19.753Z,7.00
2022-07-30T06:55:46.698Z,7.23
2022-07-30T06:58:13.746Z,7.70
2022-07-30T07:00:41.290Z,6.40
2022-07-30T07:03:11.636Z,6.70
2022-07-30T07:05:39.297Z,6.93
2022-07-30T07:08:06.290Z,5.97
2022-07-30T07:10:33.710Z,5.80
2022-07-30T07:13:03.344Z,6.03
2022-07-30T07:15:36.978Z,6.47
2022-07-30T07:18:05.289Z,6.63
2022-07-30T07:20:32.935Z,6.63
2022-07-30T07:23:00.064Z,6.23
2022-07-30T07:25:27.357Z,5.50
2022-07-30T07:28:10.877Z,5.73
2022-07-30T07:30:41.382Z,6.00
2022-07-30T07:33:08.811Z,5.90
2022-07-30T07:35:45.427Z,5.73
2022-07-30T07:38:18.325Z,5.70
2022-07-30T07:40:45.898Z,5.67
2022-07-30T07:43:12.821Z,5.60
2022-07-30T07:45:40.054Z,5.40
2022-07-30T07:48:07.449Z,5.83
2022-07-30T07:50:34.682Z,5.60
2022-07-30T07:53:02.051Z,5.87
2022-07-30T07:55:31.668Z,7.00
2022-07-30T07:58:00.041Z,5.90
2022-07-30T08:00:27.330Z,5.40
2022-07-30T08:02:54.509Z,5.23
2022-07-30T08:05:21.606Z,5.33
2022-07-30T08:07:48.549Z,5.10
2022-07-30T08:10:16.841Z,4.85
2022-07-30T08:12:43.799Z,5.15
2022-07-30T08:15:11.428Z,5.70
2022-07-30T08:17:46.008Z,5.93
2022-07-30T08:20:14.874Z,10.15
2022-07-30T08:22:43.151Z,5.63
2022-07-30T08:25:10.553Z,5.70
2022-07-30T08:27:37.639Z,5.60
2022-07-30T08:30:08.905Z,6.10
2022-07-30T08:32:36.963Z,8.20
2022-07-30T08:35:05.518Z,6.30
2022-07-30T08:37:34.470Z,14.50
2022-07-30T08:40:01.598Z,8.82
2022-07-30T08:42:29.210Z,7.25
2022-07-30T08:44:56.696Z,7.20
2022-07-30T08:47:32.846Z,6.88
2022-07-30T08:50:10.372Z,9.57
2022-07-30T08:52:37.858Z,9.25
2022-07-30T08:55:05.793Z,9.07
2022-07-30T08:57:34.606Z,8.63
2022-07-30T09:00:02.647Z,8.20
2022-07-30T09:02:33.130Z,13.13
2022-07-30T09:05:00.242Z,7.03
2022-07-30T09:07:27.568Z,6.80
2022-07-30T09:09:56.182Z,6.30
2022-07-30T09:12:45.719Z,5.55
2022-07-30T09:15:12.779Z,6.38
2022-07-30T09:18:00.784Z,6.93
2022-07-30T09:20:36.167Z,7.63
2022-07-30T09:23:05.751Z,7.88
2022-07-30T09:25:41.180Z,8.80
2022-07-30T09:28:15.772Z,8.25
2022-07-30T09:30:56.551Z,7.78
2022-07-30T09:33:55.991Z,8.40
2022-07-30T09:36:23.165Z,8.40
2022-07-30T09:38:54.618Z,8.85
2022-07-30T09:41:40.009Z,11.68
2022-07-30T09:44:07.676Z,11.23
2022-07-30T09:46:47.726Z,7.63
2022-07-30T09:49:20.779Z,6.45
2022-07-30T09:51:55.774Z,6.22
2022-07-30T09:54:42.644Z,6.82
2022-07-30T10:00:24.305Z,11.75
2022-07-30T10:02:52.611Z,12.23
2022-07-30T10:05:20.597Z,13.23
2022-07-30T10:07:57.477Z,6.63
2022-07-30T10:10:29.789Z,10.35
2022-07-30T10:13:04.500Z,9.40
2022-07-30T10:15:36.908Z,8.35
2022-07-30T10:18:06.445Z,9.75
2022-07-30T10:20:35.275Z,10.30
2022-07-30T10:23:07.647Z,10.55
2022-07-30T10:25:36.414Z,9.40
2022-07-30T10:28:07.107Z,8.90
2022-07-30T10:30:34.584Z,14.13
2022-07-30T10:33:03.409Z,11.90
2022-07-30T10:35:34.699Z,8.13
2022-07-30T10:38:09.448Z,7.68
2022-07-30T10:40:46.733Z,10.18
2022-07-30T10:43:40.063Z,11.55
2022-07-30T10:46:40.517Z,6.82
2022-07-30T10:49:19.044Z,8.35
2022-07-30T10:51:51.598Z,7.38
2022-07-30T10:54:39.943Z,7.75
2022-07-30T10:57:31.939Z,8.55
2022-07-30T11:00:09.957Z,7.28
2022-07-30T11:02:39.205Z,7.20
2022-07-30T11:05:45.071Z,6.63
2022-07-30T11:08:36.027Z,6.13
2022-07-30T11:11:59.189Z,5.63
2022-07-30T11:14:13.146Z,5.10
2022-07-30T11:17:01.013Z,5.13
2022-07-30T11:19:56.033Z,5.05
2022-07-30T11:22:36.723Z,5.35
2022-07-30T11:25:12.571Z,10.52
2022-07-30T11:27:50.338Z,4.25
2022-07-30T11:30:37.647Z,3.33
2022-07-30T11:33:33.242Z,4.15
2022-07-30T11:36:11.693Z,3.80
2022-07-30T11:39:03.666Z,3.42
2022-07-30T11:41:35.144Z,3.67
2022-07-30T11:44:29.149Z,14.25
2022-07-30T11:46:56.486Z,3.40
2022-07-30T11:49:23.635Z,2.78
2022-07-30T11:51:51.024Z,2.85
2022-07-30T11:54:18.560Z,2.30
2022-07-30T11:56:54.205Z,2.58
2022-07-30T11:59:21.264Z,2.25
2022-07-30T12:01:52.939Z,2.67
2022-07-30T12:04:20.253Z,2.25
2022-07-30T12:06:48.584Z,2.28
2022-07-30T12:09:29.231Z,2.65
2022-07-30T12:11:57.233Z,2.50
2022-07-30T12:14:24.171Z,1.98
2022-07-30T12:16:52.956Z,1.83
2022-07-30T12:19:19.972Z,2.47
2022-07-30T12:21:52.340Z,2.20
2022-07-30T12:24:25.759Z,2.50
2022-07-30T12:26:52.882Z,1.88
2022-07-30T12:29:20.248Z,2.53
2022-07-30T12:31:47.815Z,2.90
2022-07-30T12:34:23.245Z,3.72
2022-07-30T12:36:50.477Z,2.58
2022-07-30T12:39:26.004Z,3.50
2022-07-30T12:41:58.638Z,2.75
2022-07-30T12:44:41.791Z,3.70
2022-07-30T12:47:26.428Z,2.90
2022-07-30T12:49:58.838Z,3.20
2022-07-30T12:52:33.664Z,3.30
2022-07-30T12:55:12.852Z,3.20
2022-07-30T12:58:08.476Z,3.22
2022-07-30T13:00:52.964Z,2.55
2022-07-30T13:03:27.889Z,2.13
2022-07-30T13:06:00.492Z,2.25
2022-07-30T13:08:56.219Z,3.00
2022-07-30T13:11:36.999Z,2.80
2022-07-30T13:14:04.149Z,2.38
2022-07-30T13:16:33.073Z,2.35
2022-07-30T13:19:00.060Z,2.70
2022-07-30T13:21:27.033Z,2.70
2022-07-30T13:23:54.168Z,2.53
2022-07-30T13:26:21.079Z,2.90
2022-07-30T13:28:47.953Z,2.65
2022-07-30T13:31:15.232Z,3.15
2022-07-30T13:33:42.683Z,3.05
2022-07-30T13:36:09.866Z,2.42
2022-07-30T13:38:36.961Z,2.13
2022-07-30T13:41:04.854Z,2.50
2022-07-30T13:43:33.621Z,1.40
2022-07-30T13:46:03.080Z,1.60
2022-07-30T13:48:30.237Z,1.70
2022-07-30T13:50:57.237Z,1.73
2022-07-30T13:53:24.158Z,1.85
2022-07-30T13:55:51.155Z,2.00
2022-07-30T13:58:18.196Z,1.50
2022-07-30T14:00:45.464Z,1.70
2022-07-30T14:03:12.767Z,1.42
2022-07-30T14:05:42.181Z,1.60
2022-07-30T14:08:10.955Z,2.20
2022-07-30T14:10:39.823Z,1.40
2022-07-30T14:13:08.347Z,1.52
2022-07-30T14:15:35.810Z,2.10
2022-07-30T14:18:03.034Z,1.98
2022-07-30T14:20:30.555Z,1.38
2022-07-30T14:22:58.162Z,1.70
2022-07-30T14:25:25.565Z,1.40
2022-07-30T14:27:53.707Z,1.13
2022-07-30T14:30:21.209Z,1.27
2022-07-30T14:32:48.654Z,2.00
2022-07-30T14:35:15.805Z,1.53
2022-07-30T14:37:43.492Z,1.90
2022-07-30T14:40:12.192Z,1.50
2022-07-30T14:42:40.633Z,1.50
2022-07-30T14:45:09.196Z,1.60
2022-07-30T14:47:37.241Z,1.37
2022-07-30T14:50:05.059Z,1.27
2022-07-30T14:52:35.030Z,1.20
2022-07-30T14:55:03.839Z,1.70
2022-07-30T14:57:31.033Z,1.57
2022-07-30T14:59:58.002Z,1.40
2022-07-30T15:02:24.988Z,1.43
2022-07-30T15:04:52.004Z,1.43
2022-07-30T15:07:19.083Z,1.40
2022-07-30T15:09:46.008Z,0.97
2022-07-30T15:12:23.452Z,1.00
2022-07-30T15:14:51.316Z,1.50
2022-07-30T15:17:21.574Z,1.17
2022-07-30T15:19:50.550Z,2.20
2022-07-30T15:22:24.006Z,1.60
2022-07-30T15:24:51.438Z,1.30
2022-07-30T15:27:18.536Z,1.20
2022-07-30T15:29:45.617Z,1.43
2022-07-30T15:32:12.913Z,1.40
2022-07-30T15:34:40.062Z,1.10
2022-07-30T15:37:07.355Z,1.67
2022-07-30T15:39:36.063Z,1.40
2022-07-30T15:42:04.249Z,1.30
2022-07-30T15:44:31.774Z,1.10
2022-07-30T15:46:59.970Z,1.30
2022-07-30T15:49:28.073Z,1.00
2022-07-30T15:51:59.108Z,1.73
2022-07-30T15:54:27.838Z,1.10
2022-07-30T15:57:01.318Z,1.00
2022-07-30T15:59:29.077Z,1.40
2022-07-30T16:01:56.225Z,1.17
2022-07-30T16:04:31.892Z,1.70
2022-07-30T16:07:03.411Z,1.10
2022-07-30T16:09:30.775Z,1.03
2022-07-30T16:11:58.557Z,1.60
2022-07-30T16:14:26.339Z,1.37
2022-07-30T16:16:53.416Z,1.60
2022-07-30T16:19:20.557Z,1.50
2022-07-30T16:21:47.615Z,1.50
2022-07-30T16:24:14.599Z,1.30
2022-07-30T16:26:41.623Z,1.80
2022-07-30T16:29:13.893Z,1.20
2022-07-30T16:31:41.598Z,1.50
2022-07-30T16:34:08.892Z,1.20
2022-07-30T16:36:37.067Z,1.30
2022-07-30T16:39:05.477Z,1.30
2022-07-30T16:41:32.449Z,1.60
2022-07-30T16:43:59.669Z,0.97
2022-07-30T16:46:26.766Z,1.00
2022-07-30T16:48:54.040Z,1.20
2022-07-30T16:51:24.277Z,1.40
2022-07-30T16:53:53.912Z,1.50
2022-07-30T16:56:20.833Z,2.13
2022-07-30T16:58:48.200Z,1.00
2022-07-30T17:01:15.319Z,1.27
2022-07-30T17:03:42.469Z,1.20
2022-07-30T17:06:09.927Z,1.43
2022-07-30T17:08:36.920Z,1.40
2022-07-30T17:11:09.503Z,1.37
2022-07-30T17:13:40.437Z,2.10
2022-07-30T17:16:07.891Z,1.60
2022-07-30T17:18:34.888Z,1.30
2022-07-30T17:21:02.001Z,1.33
2022-07-30T17:23:29.210Z,1.57
2022-07-30T17:25:56.201Z,1.27
2022-07-30T17:28:24.349Z,1.67
2022-07-30T17:30:54.595Z,1.57
2022-07-30T17:33:21.638Z,1.83
2022-07-30T17:35:48.573Z,1.70
2022-07-30T17:38:15.498Z,1.60
2022-07-30T17:40:42.537Z,1.70
2022-07-30T17:43:11.565Z,1.63
2022-07-30T17:45:41.456Z,1.37
2022-07-30T17:48:08.733Z,1.40
2022-07-30T17:50:36.016Z,1.70
2022-07-30T17:53:05.338Z,1.50
2022-07-30T17:55:35.149Z,1.57
2022-07-30T17:58:03.347Z,1.60
2022-07-30T18:00:30.502Z,1.67
2022-07-30T18:02:57.478Z,1.70
2022-07-30T18:05:24.412Z,1.00
2022-07-30T18:07:54.401Z,1.50
2022-07-30T18:10:21.467Z,1.47
2022-07-30T18:12:49.494Z,1.43
2022-07-30T18:15:18.106Z,1.20
2022-07-30T18:17:45.456Z,1.47
2022-07-30T18:20:13.424Z,1.60
2022-07-30T18:22:40.675Z,1.50
2022-07-30T18:25:18.119Z,1.40
2022-07-30T18:27:46.919Z,1.63
2022-07-30T18:30:18.717Z,1.33
2022-07-30T18:32:48.988Z,2.27
2022-07-30T18:35:16.310Z,0.90
2022-07-30T18:37:44.567Z,1.40
2022-07-30T18:40:13.402Z,1.20
2022-07-30T18:42:40.795Z,1.00
2022-07-30T18:45:08.788Z,0.60
2022-07-30T18:47:35.887Z,0.93
2022-07-30T18:50:03.026Z,0.90
2022-07-30T18:52:30.054Z,1.00
2022-07-30T18:54:57.012Z,1.10
2022-07-30T18:57:23.990Z,0.97
2022-07-30T18:59:51.080Z,1.03
2022-07-30T19:02:18.064Z,0.87
2022-07-30T19:04:45.233Z,1.07
2022-07-30T19:07:12.414Z,2.17
2022-07-30T19:09:39.437Z,0.90
2022-07-30T19:12:07.841Z,0.80
2022-07-30T19:14:34.826Z,1.10
2022-07-30T19:17:01.837Z,1.10
2022-07-30T19:19:29.616Z,1.20
2022-07-30T19:21:57.207Z,1.47
2022-07-30T19:24:24.539Z,1.60
2022-07-30T19:26:55.071Z,1.20
2022-07-30T19:29:22.219Z,1.10
2022-07-30T19:31:49.958Z,0.90
2022-07-30T19:34:17.024Z,1.40
2022-07-30T19:36:44.095Z,1.20
2022-07-30T19:39:15.933Z,1.30
2022-07-30T19:41:51.068Z,1.10
2022-07-30T19:44:18.880Z,0.90
2022-07-30T19:46:47.165Z,1.03
2022-07-30T19:49:15.921Z,1.00
2022-07-30T19:52:06.998Z,1.60
2022-07-30T19:54:30.408Z,1.30
2022-07-30T19:56:57.411Z,1.00
2022-07-30T19:59:45.086Z,1.23
2022-07-30T20:02:13.729Z,1.30
2022-07-30T20:04:40.783Z,1.77
2022-07-30T20:07:10.718Z,1.60
2022-07-30T20:09:38.977Z,1.30
2022-07-30T20:12:10.406Z,1.00
2022-07-30T20:14:43.305Z,1.30
2022-07-30T20:17:10.683Z,1.17
2022-07-30T20:19:37.941Z,1.37
2022-07-30T20:22:08.190Z,1.17
2022-07-30T20:24:35.348Z,1.07
2022-07-30T20:29:51.379Z,1.17
2022-07-30T20:32:21.941Z,1.17
2022-07-30T20:34:49.157Z,1.37
2022-07-30T20:37:21.587Z,1.30
2022-07-30T20:39:49.799Z,1.50
2022-07-30T20:42:17.033Z,1.27
2022-07-30T20:44:49.412Z,1.23
2022-07-30T20:47:37.614Z,1.73
2022-07-30T20:50:14.654Z,1.37
2022-07-30T20:52:46.744Z,1.60
2022-07-30T20:55:16.761Z,1.60
2022-07-30T20:58:00.373Z,1.13
2022-07-30T21:00:33.265Z,1.50
2022-07-30T21:03:03.139Z,1.30
2022-07-30T21:05:31.483Z,1.30
2022-07-30T21:07:59.165Z,1.40
2022-07-30T21:10:26.109Z,1.77
2022-07-30T21:12:58.384Z,1.57
2022-07-30T21:15:32.896Z,1.20
2022-07-30T21:18:00.087Z,1.37
2022-07-30T21:20:29.867Z,1.70
2022-07-30T21:23:03.686Z,1.47
2022-07-30T21:25:33.079Z,1.30
2022-07-30T21:28:08.137Z,1.73
2022-07-30T21:30:42.305Z,1.60
2022-07-30T21:33:12.215Z,1.40
2022-07-30T21:35:39.297Z,1.60
2022-07-30T21:38:08.250Z,1.40
2022-07-30T21:40:35.912Z,1.50
2022-07-30T21:43:04.189Z,1.50
2022-07-30T21:45:38.803Z,1.70
2022-07-30T21:48:07.588Z,2.00
2022-07-30T21:50:34.636Z,1.17
2022-07-30T21:53:02.221Z,1.20
2022-07-30T21:55:33.456Z,1.33
2022-07-30T21:58:26.337Z,1.60
2022-07-30T22:01:16.619Z,1.60
2022-07-30T22:04:05.181Z,1.47
2022-07-30T22:06:39.897Z,1.43
2022-07-30T22:09:19.084Z,1.57
2022-07-30T22:12:01.479Z,1.27
2022-07-30T22:14:29.693Z,1.40
2022-07-30T22:16:58.436Z,2.20
2022-07-30T22:19:25.903Z,1.90
2022-07-30T22:21:52.929Z,1.60
2022-07-30T22:24:29.186Z,1.73
2022-07-30T22:27:11.045Z,1.50
2022-07-30T22:29:42.760Z,1.70
2022-07-30T22:32:13.716Z,1.73
2022-07-30T22:34:41.878Z,2.27
2022-07-30T22:37:13.309Z,1.77
2022-07-30T22:39:50.900Z,1.60
2022-07-30T22:42:24.561Z,1.50
2022-07-30T22:44:54.581Z,2.13
2022-07-30T22:47:50.882Z,1.90
2022-07-30T22:50:09.944Z,1.77
2022-07-30T22:52:44.227Z,1.80
2022-07-30T22:55:29.618Z,1.73
2022-07-30T22:57:56.806Z,1.93
2022-07-30T23:00:28.466Z,1.67
2022-07-30T23:03:13.962Z,1.63
2022-07-30T23:05:55.118Z,1.63
2022-07-30T23:08:30.125Z,1.67
2022-07-30T23:10:58.059Z,1.93
2022-07-30T23:12:19.363Z,1.40
2022-07-30T23:13:24.951Z,1.50
2022-07-30T23:15:52.604Z,2.37
2022-07-30T23:18:19.616Z,1.60
2022-07-30T23:20:46.660Z,2.03
2022-07-30T23:23:13.587Z,1.90
2022-07-30T23:25:40.674Z,1.50
2022-07-30T23:28:10.019Z,1.60
2022-07-30T23:30:37.278Z,1.53
2022-07-30T23:33:04.959Z,1.30
2022-07-30T23:35:33.470Z,2.63
2022-07-30T23:38:00.551Z,1.53
2022-07-30T23:40:28.440Z,2.03
2022-07-30T23:42:55.485Z,1.80
2022-07-30T23:45:22.413Z,2.00
2022-07-30T23:48:00.386Z,2.30
2022-07-30T23:50:31.620Z,2.00
2022-07-30T23:52:58.764Z,1.83
2022-07-30T23:55:27.370Z,1.77
2022-07-30T23:57:54.486Z,2.00
